KIWI

Wiscasset Airport

Wiscasset, Maine, USA
METAR KIWI 230253Z AUTO 21003KT 10SM OVC060 13/11 A2995 RMK AO2 SLP143 T01280111 58022
Observed Flight Rules
May-23 @ 02:53 UTC (23 minutes ago) Visual Flight Rules
Wind Visibility Clouds
210° at 3 knots 10 miles
  • Overcast at 6,000' AGL
Temperatures Readings
Current 13°C / 55°F
Dewpoint 11°C / 52°F
Humidity 88%
Altimeter 29.95" Hg
Pressure 1014.3 hPa
Elevation 20
METAR KIWI 230253Z AUTO 21003KT 10SM OVC060 13/11 A2995 RMK AO2 SLP143 T01280111 58022
Observed Flight Rules
May-23 @ 02:53 UTC
(23 minutes ago)
VFR
Wind Visibility
210° at 3 knots 10 miles
Clouds
  • Overcast at 6,000' AGL
Temperature Dewpoint
13°C / 55°F 11°C / 52°F
Humidity Altimeter Pressure
88% 29.95" Hg 1014.3 hPa